createdAt,value
2017-12-21T00:01:48.837Z,30.65
2017-12-21T00:04:18.592Z,44.17
2017-12-21T00:06:47.560Z,45.75
2017-12-21T00:09:16.532Z,36.00
2017-12-21T00:11:46.306Z,33.58
2017-12-21T00:14:15.291Z,43.05
2017-12-21T00:16:44.236Z,30.05
2017-12-21T00:19:13.200Z,29.92
2017-12-21T00:21:42.186Z,48.53
2017-12-21T00:24:11.184Z,43.25
2017-12-21T00:26:40.118Z,28.02
2017-12-21T00:29:09.065Z,28.40
2017-12-21T00:31:37.997Z,32.33
2017-12-21T00:34:06.936Z,24.27
2017-12-21T00:36:35.875Z,32.97
2017-12-21T00:39:05.686Z,32.60
2017-12-21T00:41:34.646Z,33.38
2017-12-21T00:44:03.660Z,28.73
2017-12-21T00:46:33.374Z,23.30
2017-12-21T00:49:03.042Z,26.15
2017-12-21T00:51:32.040Z,21.15
2017-12-21T00:54:01.008Z,18.65
2017-12-21T00:56:29.983Z,22.95
2017-12-21T00:58:58.904Z,29.98
2017-12-21T01:01:27.825Z,23.05
2017-12-21T01:03:57.552Z,26.33
2017-12-21T01:06:27.299Z,41.35
2017-12-21T01:08:56.269Z,36.50
2017-12-21T01:11:25.210Z,39.58
2017-12-21T01:13:54.219Z,33.85
2017-12-21T01:16:23.193Z,35.28
2017-12-21T01:18:52.210Z,50.38
2017-12-21T01:21:21.907Z,34.28
2017-12-21T01:23:50.884Z,33.38
2017-12-21T01:26:19.854Z,89.18
2017-12-21T01:28:48.891Z,79.10
2017-12-21T01:31:18.002Z,47.60
2017-12-21T01:33:47.732Z,36.72
2017-12-21T01:36:16.707Z,49.13
2017-12-21T01:38:46.388Z,47.22
2017-12-21T01:41:15.686Z,35.65
2017-12-21T01:43:45.548Z,41.05
2017-12-21T01:46:14.530Z,46.58
2017-12-21T01:48:43.528Z,27.00
2017-12-21T01:51:12.528Z,48.47
2017-12-21T01:53:41.478Z,33.95
2017-12-21T01:56:10.462Z,49.55
2017-12-21T01:58:39.448Z,37.45
2017-12-21T02:01:08.387Z,28.17
2017-12-21T02:03:37.296Z,32.47
2017-12-21T02:06:06.334Z,28.45
2017-12-21T02:08:35.294Z,35.45
2017-12-21T02:11:04.306Z,26.08
2017-12-21T02:13:34.059Z,34.10
2017-12-21T02:16:03.814Z,41.90
2017-12-21T02:19:51.940Z,46.15
2017-12-21T02:22:21.154Z,54.30
2017-12-21T02:24:50.601Z,39.72
2017-12-21T02:27:19.647Z,47.92
2017-12-21T02:29:48.696Z,42.90
2017-12-21T02:32:18.459Z,27.95
2017-12-21T02:34:48.021Z,28.33
2017-12-21T02:37:17.959Z,27.00
2017-12-21T02:39:47.060Z,33.22
2017-12-21T02:42:16.128Z,24.05
2017-12-21T02:44:45.918Z,30.52
2017-12-21T02:47:15.000Z,26.92
2017-12-21T02:49:44.089Z,23.52
2017-12-21T02:52:13.145Z,22.67
2017-12-21T02:54:42.250Z,23.30
2017-12-21T02:57:11.301Z,30.75
2017-12-21T02:59:41.128Z,19.85
2017-12-21T03:02:10.872Z,28.33
2017-12-21T03:04:40.232Z,17.45
2017-12-21T03:07:10.055Z,17.33
2017-12-21T03:09:39.955Z,21.62
2017-12-21T03:12:09.690Z,16.67
2017-12-21T03:14:38.751Z,19.77
2017-12-21T03:17:07.709Z,26.23
2017-12-21T03:19:36.715Z,22.00
2017-12-21T03:22:05.766Z,23.00
2017-12-21T03:24:35.557Z,21.25
2017-12-21T03:27:05.831Z,18.98
2017-12-21T03:29:34.863Z,17.83
2017-12-21T03:32:04.559Z,17.08
2017-12-21T03:34:33.486Z,19.27
2017-12-21T03:37:02.468Z,18.70
2017-12-21T03:39:32.233Z,20.95
2017-12-21T03:42:01.209Z,19.67
2017-12-21T03:44:30.243Z,20.75
2017-12-21T03:46:59.264Z,15.98
2017-12-21T03:49:28.224Z,25.12
2017-12-21T03:51:57.411Z,16.55
2017-12-21T03:54:26.364Z,13.98
2017-12-21T03:56:55.388Z,15.50
2017-12-21T03:59:25.099Z,16.12
2017-12-21T04:01:54.074Z,18.20
2017-12-21T04:04:23.059Z,15.43
2017-12-21T04:06:52.148Z,16.37
2017-12-21T04:09:21.138Z,17.73
2017-12-21T04:11:50.152Z,15.05
2017-12-21T04:14:19.168Z,16.95
2017-12-21T04:16:48.136Z,15.43
2017-12-21T04:19:17.089Z,15.98
2017-12-21T04:21:46.792Z,14.00
2017-12-21T04:24:16.020Z,16.77
2017-12-21T04:26:45.285Z,16.60
2017-12-21T04:29:15.293Z,12.55
2017-12-21T04:31:44.254Z,12.02
2017-12-21T04:34:13.201Z,13.32
2017-12-21T04:36:42.980Z,12.43
2017-12-21T04:39:12.682Z,12.15
2017-12-21T04:41:41.676Z,12.43
2017-12-21T04:44:11.432Z,12.52
2017-12-21T04:46:40.555Z,12.07
2017-12-21T04:49:09.564Z,11.98
2017-12-21T04:51:38.540Z,11.43
2017-12-21T04:54:07.519Z,10.63
2017-12-21T04:56:36.492Z,9.32
2017-12-21T04:59:05.537Z,12.77
2017-12-21T05:01:34.599Z,14.18
2017-12-21T05:04:03.570Z,10.27
2017-12-21T05:06:32.548Z,9.77
2017-12-21T05:09:02.290Z,13.43
2017-12-21T05:11:31.261Z,8.60
2017-12-21T05:14:00.290Z,10.75
2017-12-21T05:16:29.240Z,8.95
2017-12-21T05:18:58.948Z,11.88
2017-12-21T05:21:28.675Z,9.90
2017-12-21T05:23:57.652Z,11.00
2017-12-21T05:26:29.694Z,10.52
2017-12-21T05:28:58.636Z,11.65
2017-12-21T05:31:27.624Z,10.90
2017-12-21T05:33:56.579Z,11.50
2017-12-21T05:36:25.555Z,10.48
2017-12-21T05:38:54.505Z,12.57
2017-12-21T05:41:23.916Z,10.50
2017-12-21T05:43:53.806Z,10.70
2017-12-21T05:46:24.074Z,10.18
2017-12-21T05:48:53.070Z,8.75
2017-12-21T05:51:22.071Z,7.43
2017-12-21T05:53:51.077Z,8.82
2017-12-21T05:56:20.117Z,10.85
2017-12-21T05:58:49.061Z,8.85
2017-12-21T06:01:25.535Z,10.70
2017-12-21T06:03:56.311Z,11.05
2017-12-21T06:06:25.351Z,9.20
2017-12-21T06:08:54.270Z,9.52
2017-12-21T06:11:23.996Z,9.50
2017-12-21T06:13:53.007Z,10.90
2017-12-21T06:16:22.181Z,10.50
2017-12-21T06:18:51.995Z,10.82
2017-12-21T06:21:21.765Z,11.52
2017-12-21T06:23:50.790Z,9.85
2017-12-21T06:26:21.741Z,12.95
2017-12-21T06:28:50.859Z,12.88
2017-12-21T06:31:22.767Z,13.43
2017-12-21T06:33:52.019Z,11.90
2017-12-21T06:36:21.002Z,12.07
2017-12-21T06:38:51.042Z,10.05
2017-12-21T06:41:20.029Z,10.55
2017-12-21T06:43:49.057Z,15.10
2017-12-21T06:46:18.837Z,10.27
2017-12-21T06:48:47.859Z,13.38
2017-12-21T06:51:47.311Z,11.10
2017-12-21T06:54:16.315Z,13.48
2017-12-21T06:56:45.344Z,10.98
2017-12-21T06:59:14.362Z,13.27
2017-12-21T07:01:44.109Z,11.00
2017-12-21T07:04:13.077Z,12.80
2017-12-21T07:06:42.824Z,13.55
2017-12-21T07:09:11.861Z,10.70
2017-12-21T07:11:40.850Z,10.82
2017-12-21T07:14:10.778Z,12.07
2017-12-21T07:16:40.549Z,13.60
2017-12-21T07:19:09.537Z,14.45
2017-12-21T07:21:38.480Z,15.50
2017-12-21T07:24:08.215Z,10.73
2017-12-21T07:26:37.996Z,12.52
2017-12-21T07:29:07.966Z,13.30
2017-12-21T07:31:36.914Z,10.70
2017-12-21T07:34:06.691Z,13.77
2017-12-21T07:36:35.637Z,13.88
2017-12-21T07:39:05.444Z,15.90
2017-12-21T07:41:34.438Z,13.80
2017-12-21T07:44:03.484Z,13.62
2017-12-21T07:46:32.490Z,12.45
2017-12-21T07:49:02.263Z,14.13
2017-12-21T07:51:31.228Z,13.35
2017-12-21T07:54:00.206Z,12.05
2017-12-21T07:56:29.996Z,12.82
2017-12-21T07:58:58.951Z,15.23
2017-12-21T08:01:29.272Z,17.75
2017-12-21T08:03:58.568Z,10.32
2017-12-21T08:06:28.421Z,12.13
2017-12-21T08:08:58.297Z,12.10
2017-12-21T08:11:27.276Z,13.35
2017-12-21T08:13:56.288Z,13.57
2017-12-21T08:16:25.284Z,14.27
2017-12-21T08:18:55.030Z,11.55
2017-12-21T08:21:24.254Z,11.32
2017-12-21T08:23:53.272Z,9.73
2017-12-21T08:26:22.335Z,12.65
2017-12-21T08:28:51.643Z,9.93
2017-12-21T08:31:21.418Z,10.65
2017-12-21T08:33:51.286Z,10.95
2017-12-21T08:36:28.711Z,9.00
2017-12-21T08:39:00.132Z,11.23
2017-12-21T08:41:33.987Z,10.25
2017-12-21T08:44:02.984Z,11.00
2017-12-21T08:46:32.012Z,9.65
2017-12-21T08:49:07.617Z,10.20
2017-12-21T08:51:37.461Z,9.43
2017-12-21T08:54:06.668Z,11.18
2017-12-21T08:56:35.721Z,9.15
2017-12-21T08:59:04.876Z,7.22
2017-12-21T09:01:33.930Z,7.40
2017-12-21T09:04:03.135Z,8.52
2017-12-21T09:06:32.242Z,7.10
2017-12-21T09:09:01.386Z,7.75
2017-12-21T09:11:31.211Z,8.50
2017-12-21T09:14:00.241Z,8.13
2017-12-21T09:16:29.453Z,7.20
2017-12-21T09:18:58.570Z,7.90
2017-12-21T09:21:27.625Z,7.78
2017-12-21T09:23:57.373Z,7.70
2017-12-21T09:26:26.383Z,7.65
2017-12-21T09:28:55.399Z,9.10
2017-12-21T09:31:24.496Z,8.63
2017-12-21T09:33:54.334Z,8.95
2017-12-21T09:36:24.514Z,8.60
2017-12-21T09:38:54.363Z,7.55
2017-12-21T09:41:24.275Z,7.53
2017-12-21T09:43:53.450Z,6.95
2017-12-21T09:46:23.514Z,8.45
2017-12-21T09:48:52.871Z,8.38
2017-12-21T09:51:22.825Z,7.80
2017-12-21T09:53:52.190Z,8.00
2017-12-21T09:56:21.382Z,8.35
2017-12-21T09:58:50.506Z,7.75
2017-12-21T10:01:19.716Z,9.15
2017-12-21T10:03:48.660Z,7.85
2017-12-21T10:06:23.714Z,7.95
2017-12-21T10:08:53.643Z,9.20
2017-12-21T10:11:22.994Z,9.07
2017-12-21T10:13:52.955Z,8.32
2017-12-21T10:16:22.858Z,8.73
2017-12-21T10:21:27.407Z,9.68
2017-12-21T10:23:57.216Z,8.60
2017-12-21T10:26:31.543Z,9.63
2017-12-21T10:29:00.671Z,8.10
2017-12-21T10:31:29.740Z,9.10
2017-12-21T10:33:58.790Z,8.68
2017-12-21T10:36:33.058Z,8.65
2017-12-21T10:39:02.309Z,8.80
2017-12-21T10:41:32.200Z,9.57
2017-12-21T10:44:01.360Z,9.30
2017-12-21T10:46:32.354Z,9.68
2017-12-21T10:49:02.286Z,8.68
2017-12-21T10:51:31.638Z,9.05
2017-12-21T10:54:00.842Z,9.90
2017-12-21T10:56:30.746Z,10.23
2017-12-21T10:59:00.754Z,9.80
2017-12-21T11:01:29.837Z,9.00
2017-12-21T11:03:58.956Z,8.23
2017-12-21T11:06:27.982Z,9.50
2017-12-21T11:08:56.989Z,10.15
2017-12-21T11:11:26.838Z,9.10
2017-12-21T11:14:02.960Z,10.55
2017-12-21T11:16:32.205Z,9.80
2017-12-21T11:19:02.269Z,10.75
2017-12-21T11:21:31.897Z,10.40
2017-12-21T11:24:01.815Z,10.32
2017-12-21T11:26:31.904Z,9.65
2017-12-21T11:29:00.987Z,10.90
2017-12-21T11:31:30.118Z,10.07
2017-12-21T11:33:59.384Z,10.75
2017-12-21T11:36:28.755Z,10.90
2017-12-21T11:38:58.665Z,11.15
2017-12-21T11:41:27.732Z,13.43
2017-12-21T11:43:58.158Z,10.88
2017-12-21T11:46:27.574Z,11.12
2017-12-21T11:48:57.408Z,9.77
2017-12-21T11:51:29.551Z,9.43
2017-12-21T11:53:59.901Z,11.63
2017-12-21T11:56:29.271Z,9.98
2017-12-21T11:59:03.902Z,12.37
2017-12-21T12:01:34.148Z,11.43
2017-12-21T12:04:04.261Z,10.82
2017-12-21T12:06:35.008Z,14.87
2017-12-21T12:09:04.652Z,12.57
2017-12-21T12:11:34.712Z,10.80
2017-12-21T12:14:04.722Z,12.20
2017-12-21T12:16:33.996Z,10.63
2017-12-21T12:19:03.421Z,12.45
2017-12-21T12:21:32.697Z,11.80
2017-12-21T12:24:03.068Z,11.02
2017-12-21T12:26:32.659Z,11.48
2017-12-21T12:29:02.082Z,11.98
2017-12-21T12:31:31.235Z,11.50
2017-12-21T12:34:00.284Z,12.40
2017-12-21T12:36:29.320Z,10.57
2017-12-21T12:38:58.371Z,11.90
2017-12-21T12:41:27.408Z,11.73
2017-12-21T12:43:56.542Z,11.27
2017-12-21T12:46:25.941Z,12.48
2017-12-21T12:48:54.997Z,11.38
2017-12-21T12:51:25.045Z,11.07
2017-12-21T12:53:54.156Z,12.15
2017-12-21T12:56:23.315Z,11.40
2017-12-21T12:58:53.393Z,10.68
2017-12-21T13:01:22.468Z,10.68
2017-12-21T13:03:51.631Z,10.85
2017-12-21T13:06:20.719Z,9.75
2017-12-21T13:08:49.803Z,10.45
2017-12-21T13:11:19.339Z,10.70
2017-12-21T13:13:49.488Z,11.68
2017-12-21T13:16:19.017Z,11.27
2017-12-21T13:18:49.968Z,11.40
2017-12-21T13:21:19.718Z,10.48
2017-12-21T13:23:48.801Z,8.55
2017-12-21T13:26:18.659Z,8.90
2017-12-21T13:28:47.732Z,8.77
2017-12-21T13:31:16.765Z,8.15
2017-12-21T13:33:46.523Z,7.97
2017-12-21T13:36:15.543Z,9.20
2017-12-21T13:38:44.525Z,8.13
2017-12-21T13:41:14.533Z,8.10
2017-12-21T13:43:44.416Z,8.00
2017-12-21T13:46:13.652Z,8.07
2017-12-21T13:48:42.807Z,7.28
2017-12-21T13:51:11.871Z,7.60
2017-12-21T13:53:40.976Z,7.90
2017-12-21T13:56:10.104Z,6.70
2017-12-21T13:58:39.208Z,6.15
2017-12-21T14:01:09.194Z,6.32
2017-12-21T14:03:38.201Z,6.55
2017-12-21T14:06:08.514Z,6.25
2017-12-21T14:08:38.327Z,6.57
2017-12-21T14:11:07.408Z,6.43
2017-12-21T14:13:36.639Z,6.60
2017-12-21T14:16:09.418Z,6.55
2017-12-21T14:18:38.499Z,6.70
2017-12-21T14:21:07.584Z,6.50
2017-12-21T14:23:36.685Z,6.70
2017-12-21T14:26:05.915Z,6.60
2017-12-21T14:28:35.080Z,6.25
2017-12-21T14:31:04.223Z,6.75
2017-12-21T14:33:33.446Z,6.00
2017-12-21T14:36:02.796Z,6.05
2017-12-21T14:38:32.727Z,6.20
2017-12-21T14:41:01.900Z,5.45
2017-12-21T14:43:31.045Z,6.12
2017-12-21T14:46:01.692Z,5.15
2017-12-21T14:48:31.624Z,5.07
2017-12-21T14:51:00.839Z,6.55
2017-12-21T14:53:30.860Z,5.00
2017-12-21T14:55:59.876Z,5.00
2017-12-21T14:58:29.738Z,5.68
2017-12-21T15:00:58.748Z,4.75
2017-12-21T15:03:27.739Z,5.70
2017-12-21T15:05:56.847Z,4.82
2017-12-21T15:08:26.214Z,4.75
2017-12-21T15:10:55.361Z,4.75
2017-12-21T15:13:25.214Z,4.97
2017-12-21T15:15:54.522Z,4.55
2017-12-21T15:18:24.376Z,4.00
2017-12-21T15:20:54.900Z,4.40
2017-12-21T15:23:24.051Z,3.78
2017-12-21T15:25:53.910Z,4.37
2017-12-21T15:28:23.509Z,4.45
2017-12-21T15:30:52.584Z,4.60
2017-12-21T15:33:23.351Z,5.62
2017-12-21T15:35:52.442Z,4.53
2017-12-21T15:38:21.512Z,5.05
2017-12-21T15:40:50.707Z,4.75
2017-12-21T15:43:20.548Z,4.87
2017-12-21T15:45:49.536Z,4.62
2017-12-21T15:48:18.644Z,4.80
2017-12-21T15:50:47.696Z,5.25
2017-12-21T15:53:16.749Z,5.18
2017-12-21T15:55:46.555Z,5.55
2017-12-21T15:58:16.550Z,4.75
2017-12-21T16:00:46.470Z,5.47
2017-12-21T16:03:15.676Z,5.10
2017-12-21T16:05:45.732Z,5.03
2017-12-21T16:08:15.612Z,5.70
2017-12-21T16:10:45.635Z,5.18
2017-12-21T16:13:15.617Z,4.05
2017-12-21T16:15:45.665Z,8.88
2017-12-21T16:18:15.546Z,5.40
2017-12-21T16:20:44.987Z,5.15
2017-12-21T16:23:14.893Z,4.80
2017-12-21T16:25:44.779Z,6.87
2017-12-21T16:28:14.536Z,5.85
2017-12-21T16:30:44.042Z,5.25
2017-12-21T16:33:13.191Z,8.25
2017-12-21T16:35:43.200Z,6.15
2017-12-21T16:38:12.306Z,5.57
2017-12-21T16:40:41.446Z,5.32
2017-12-21T16:43:10.564Z,6.07
2017-12-21T16:45:40.525Z,5.60
2017-12-21T16:48:09.690Z,6.00
2017-12-21T16:50:38.970Z,6.53
2017-12-21T16:53:08.846Z,5.53
2017-12-21T16:55:38.726Z,5.62
2017-12-21T16:58:07.984Z,5.07
2017-12-21T17:00:37.262Z,5.80
2017-12-21T17:03:07.758Z,5.85
2017-12-21T17:05:37.051Z,5.05
2017-12-21T17:08:06.133Z,5.65
2017-12-21T17:10:35.974Z,6.65
2017-12-21T17:13:05.043Z,5.80
2017-12-21T17:15:34.179Z,6.37
2017-12-21T17:18:04.081Z,5.78
2017-12-21T17:20:36.983Z,6.37
2017-12-21T17:23:06.135Z,4.72
2017-12-21T17:25:35.209Z,5.90
2017-12-21T17:28:05.231Z,6.05
2017-12-21T17:30:34.424Z,5.22
2017-12-21T17:33:04.661Z,5.87
2017-12-21T17:35:33.808Z,6.00
2017-12-21T17:38:03.900Z,5.53
2017-12-21T17:40:33.042Z,6.50
2017-12-21T17:43:02.457Z,6.82
2017-12-21T17:45:31.548Z,7.32
2017-12-21T17:48:00.614Z,7.55
2017-12-21T17:50:30.505Z,7.12
2017-12-21T17:52:59.699Z,7.07
2017-12-21T17:55:28.808Z,5.30
2017-12-21T17:58:01.635Z,6.82
2017-12-21T18:00:30.719Z,5.97
2017-12-21T18:02:59.782Z,7.03
2017-12-21T18:05:29.687Z,6.90
2017-12-21T18:08:02.036Z,7.10
2017-12-21T18:10:31.069Z,8.05
2017-12-21T18:13:00.238Z,9.07
2017-12-21T18:15:29.415Z,14.95
2017-12-21T18:18:02.444Z,8.07
2017-12-21T18:20:32.358Z,7.18
2017-12-21T18:23:01.356Z,9.02
2017-12-21T18:25:31.253Z,9.38
2017-12-21T18:28:00.279Z,10.57
2017-12-21T18:30:30.114Z,9.77
2017-12-21T18:32:59.179Z,9.90
2017-12-21T18:35:29.002Z,10.00
2017-12-21T18:37:58.800Z,10.85
2017-12-21T18:40:28.733Z,10.48
2017-12-21T18:42:58.504Z,11.40
2017-12-21T18:45:28.598Z,12.68
2017-12-21T18:47:57.678Z,10.07
2017-12-21T18:50:27.509Z,11.05
2017-12-21T18:52:56.927Z,11.32
2017-12-21T18:55:26.352Z,11.25
2017-12-21T18:57:55.605Z,11.12
2017-12-21T19:00:25.639Z,10.88
2017-12-21T19:02:54.838Z,11.20
2017-12-21T19:05:24.052Z,12.43
2017-12-21T19:07:57.630Z,11.57
2017-12-21T19:10:26.723Z,12.40
2017-12-21T19:12:55.883Z,12.48
2017-12-21T19:15:30.788Z,11.02
2017-12-21T19:18:00.658Z,10.75
2017-12-21T19:20:33.256Z,11.15
2017-12-21T19:23:02.353Z,11.57
2017-12-21T19:25:31.409Z,13.07
2017-12-21T19:28:00.543Z,12.02
2017-12-21T19:30:29.660Z,15.10
2017-12-21T19:32:59.160Z,14.65
2017-12-21T19:35:28.426Z,15.45
2017-12-21T19:37:58.306Z,12.75
2017-12-21T19:40:27.788Z,13.32
2017-12-21T19:43:01.268Z,12.48
2017-12-21T19:45:31.303Z,13.35
2017-12-21T19:48:01.134Z,16.15
2017-12-21T19:50:31.385Z,13.35
2017-12-21T19:53:00.472Z,13.85
2017-12-21T19:55:29.659Z,13.57
2017-12-21T19:58:10.268Z,12.43
2017-12-21T20:00:40.548Z,15.02
2017-12-21T20:03:13.652Z,13.30
2017-12-21T20:05:42.686Z,16.92
2017-12-21T20:08:12.537Z,11.63
2017-12-21T20:10:42.340Z,12.30
2017-12-21T20:13:12.243Z,13.77
2017-12-21T20:15:41.299Z,15.45
2017-12-21T20:18:11.185Z,13.68
2017-12-21T20:20:40.287Z,15.80
2017-12-21T20:23:09.347Z,14.10
2017-12-21T20:25:39.123Z,14.20
2017-12-21T20:28:11.650Z,14.10
2017-12-21T20:30:43.584Z,13.45
2017-12-21T20:33:14.613Z,16.87
2017-12-21T20:35:43.683Z,18.73
2017-12-21T20:38:17.588Z,17.00
2017-12-21T20:40:46.825Z,15.45
2017-12-21T20:43:21.100Z,15.98
2017-12-21T20:45:50.196Z,17.85
2017-12-21T20:48:19.223Z,16.65
2017-12-21T20:50:49.092Z,17.45
2017-12-21T20:53:18.310Z,21.45
2017-12-21T20:55:47.379Z,17.10
2017-12-21T20:58:16.430Z,16.58
2017-12-21T21:00:45.619Z,18.08
2017-12-21T21:03:14.668Z,14.30
2017-12-21T21:05:43.700Z,17.42
2017-12-21T21:08:12.690Z,18.67
2017-12-21T21:10:41.698Z,19.98
2017-12-21T21:13:11.518Z,19.55
2017-12-21T21:15:40.593Z,21.05
2017-12-21T21:18:10.543Z,19.33
2017-12-21T21:20:40.403Z,21.15
2017-12-21T21:23:09.502Z,18.67
2017-12-21T21:25:38.598Z,23.55
2017-12-21T21:28:09.510Z,21.60
2017-12-21T21:30:38.610Z,23.98
2017-12-21T21:33:07.592Z,26.75
2017-12-21T21:35:36.628Z,26.52
2017-12-21T21:38:05.657Z,22.15
2017-12-21T21:40:35.444Z,25.60
2017-12-21T21:43:05.257Z,23.12
2017-12-21T21:45:34.300Z,24.70
2017-12-21T21:48:03.337Z,20.75
2017-12-21T21:50:32.339Z,23.50
2017-12-21T21:53:01.435Z,21.00
2017-12-21T21:55:30.786Z,21.85
2017-12-21T21:57:59.854Z,24.83
2017-12-21T22:00:30.489Z,27.80
2017-12-21T22:03:00.502Z,24.60
2017-12-21T22:05:30.400Z,21.52
2017-12-21T22:08:00.618Z,22.35
2017-12-21T22:10:29.891Z,20.67
2017-12-21T22:12:58.954Z,18.35
2017-12-21T22:15:27.993Z,23.35
2017-12-21T22:17:57.141Z,23.10
2017-12-21T22:20:26.175Z,20.75
2017-12-21T22:22:55.343Z,24.25
2017-12-21T22:25:24.367Z,24.87
2017-12-21T22:27:53.388Z,24.67
2017-12-21T22:30:22.385Z,21.75
2017-12-21T22:32:52.805Z,23.55
2017-12-21T22:35:22.098Z,25.30
2017-12-21T22:37:51.110Z,23.05
2017-12-21T22:40:20.917Z,24.65
2017-12-21T22:42:51.010Z,20.98
2017-12-21T22:45:20.164Z,26.05
2017-12-21T22:47:49.279Z,25.20
2017-12-21T22:50:19.266Z,24.25
2017-12-21T22:52:48.333Z,22.15
2017-12-21T22:55:17.332Z,19.60
2017-12-21T22:57:47.341Z,25.27
2017-12-21T23:00:25.305Z,20.50
2017-12-21T23:02:54.269Z,21.52
2017-12-21T23:05:23.280Z,20.30
2017-12-21T23:07:52.328Z,21.87
2017-12-21T23:10:22.242Z,23.23
2017-12-21T23:12:51.333Z,21.90
2017-12-21T23:15:21.117Z,21.87
2017-12-21T23:17:50.147Z,26.62
2017-12-21T23:20:19.910Z,24.12
2017-12-21T23:22:48.994Z,23.95
2017-12-21T23:25:18.024Z,20.62
2017-12-21T23:27:47.090Z,22.48
2017-12-21T23:30:16.108Z,22.37
2017-12-21T23:32:45.115Z,17.02
2017-12-21T23:35:14.210Z,24.65
2017-12-21T23:37:43.142Z,21.55
2017-12-21T23:40:12.215Z,20.25
2017-12-21T23:42:42.166Z,19.55
2017-12-21T23:45:11.148Z,20.52
2017-12-21T23:47:40.597Z,21.02
2017-12-21T23:50:09.669Z,25.40
2017-12-21T23:52:38.781Z,24.02
2017-12-21T23:55:07.836Z,24.50
2017-12-21T23:57:36.889Z,22.62
